sensor_id;sensor_type;location;lat;lon;timestamp;temperature;humidity
336;DHT22;156;48.738;9.228;2023-08-20T00:01:06;23.40;1.00
336;DHT22;156;48.738;9.228;2023-08-20T00:03:34;23.50;1.00
336;DHT22;156;48.738;9.228;2023-08-20T00:06:02;23.60;1.00
336;DHT22;156;48.738;9.228;2023-08-20T00:08:29;23.70;1.00
336;DHT22;156;48.738;9.228;2023-08-20T00:10:56;23.70;1.00
336;DHT22;156;48.738;9.228;2023-08-20T00:13:23;23.70;1.00
336;DHT22;156;48.738;9.228;2023-08-20T00:15:52;23.80;1.00
336;DHT22;156;48.738;9.228;2023-08-20T00:18:19;23.80;1.00
336;DHT22;156;48.738;9.228;2023-08-20T00:20:46;23.70;1.00
336;DHT22;156;48.738;9.228;2023-08-20T00:23:14;23.70;1.00
336;DHT22;156;48.738;9.228;2023-08-20T00:25:41;23.60;1.00
336;DHT22;156;48.738;9.228;2023-08-20T00:28:09;23.70;1.00
336;DHT22;156;48.738;9.228;2023-08-20T00:30:37;23.70;1.00
336;DHT22;156;48.738;9.228;2023-08-20T00:33:05;23.70;1.00
336;DHT22;156;48.738;9.228;2023-08-20T00:35:32;23.60;1.00
336;DHT22;156;48.738;9.228;2023-08-20T00:37:59;23.50;1.00
336;DHT22;156;48.738;9.228;2023-08-20T00:40:26;23.40;1.00
336;DHT22;156;48.738;9.228;2023-08-20T00:42:53;23.30;1.00
336;DHT22;156;48.738;9.228;2023-08-20T00:45:20;23.30;1.00
336;DHT22;156;48.738;9.228;2023-08-20T00:47:47;23.20;1.00
336;DHT22;156;48.738;9.228;2023-08-20T00:50:16;23.20;6.60
336;DHT22;156;48.738;9.228;2023-08-20T00:52:44;23.20;11.10
336;DHT22;156;48.738;9.228;2023-08-20T00:55:12;23.10;18.40
336;DHT22;156;48.738;9.228;2023-08-20T00:57:40;23.10;24.60
336;DHT22;156;48.738;9.228;2023-08-20T01:00:08;23.10;37.80
336;DHT22;156;48.738;9.228;2023-08-20T01:02:37;23.10;43.70
336;DHT22;156;48.738;9.228;2023-08-20T01:05:06;23.10;47.40
336;DHT22;156;48.738;9.228;2023-08-20T01:07:43;23.00;50.80
336;DHT22;156;48.738;9.228;2023-08-20T01:10:21;23.00;55.70
336;DHT22;156;48.738;9.228;2023-08-20T01:12:52;23.00;55.40
336;DHT22;156;48.738;9.228;2023-08-20T01:15:19;23.00;66.70
336;DHT22;156;48.738;9.228;2023-08-20T01:17:48;23.00;84.80
336;DHT22;156;48.738;9.228;2023-08-20T01:20:15;22.90;90.20
336;DHT22;156;48.738;9.228;2023-08-20T01:22:59;22.90;95.20
336;DHT22;156;48.738;9.228;2023-08-20T01:25:45;22.90;99.00
336;DHT22;156;48.738;9.228;2023-08-20T01:28:28;22.90;99.90
336;DHT22;156;48.738;9.228;2023-08-20T01:30:57;22.90;99.90
336;DHT22;156;48.738;9.228;2023-08-20T01:33:25;22.90;99.90
336;DHT22;156;48.738;9.228;2023-08-20T01:35:52;22.90;99.90
336;DHT22;156;48.738;9.228;2023-08-20T01:38:19;22.90;99.90
336;DHT22;156;48.738;9.228;2023-08-20T01:40:47;22.90;99.90
336;DHT22;156;48.738;9.228;2023-08-20T01:43:14;22.80;99.90
336;DHT22;156;48.738;9.228;2023-08-20T01:45:42;22.80;99.90
336;DHT22;156;48.738;9.228;2023-08-20T01:48:09;22.80;99.90
336;DHT22;156;48.738;9.228;2023-08-20T01:50:36;22.80;99.90
336;DHT22;156;48.738;9.228;2023-08-20T01:53:03;22.70;99.90
336;DHT22;156;48.738;9.228;2023-08-20T01:55:30;22.70;99.90
336;DHT22;156;48.738;9.228;2023-08-20T01:57:57;22.70;99.90
336;DHT22;156;48.738;9.228;2023-08-20T02:00:24;22.70;99.90
336;DHT22;156;48.738;9.228;2023-08-20T02:02:53;22.70;99.90
336;DHT22;156;48.738;9.228;2023-08-20T02:05:20;22.60;99.90
336;DHT22;156;48.738;9.228;2023-08-20T02:07:47;22.60;99.90
336;DHT22;156;48.738;9.228;2023-08-20T02:10:14;22.60;99.90
336;DHT22;156;48.738;9.228;2023-08-20T02:12:41;22.50;99.90
336;DHT22;156;48.738;9.228;2023-08-20T02:15:09;22.60;99.90
336;DHT22;156;48.738;9.228;2023-08-20T02:17:37;22.60;99.90
336;DHT22;156;48.738;9.228;2023-08-20T02:20:06;22.60;99.90
336;DHT22;156;48.738;9.228;2023-08-20T02:22:35;22.50;99.90
336;DHT22;156;48.738;9.228;2023-08-20T02:25:02;22.50;99.90
336;DHT22;156;48.738;9.228;2023-08-20T02:27:29;22.60;99.90
336;DHT22;156;48.738;9.228;2023-08-20T02:29:56;22.60;99.90
336;DHT22;156;48.738;9.228;2023-08-20T02:32:23;22.50;99.90
336;DHT22;156;48.738;9.228;2023-08-20T02:34:52;22.50;99.90
336;DHT22;156;48.738;9.228;2023-08-20T02:37:21;22.40;99.90
336;DHT22;156;48.738;9.228;2023-08-20T02:39:48;22.40;99.90
336;DHT22;156;48.738;9.228;2023-08-20T02:42:15;22.30;99.90
336;DHT22;156;48.738;9.228;2023-08-20T02:44:42;22.20;99.90
336;DHT22;156;48.738;9.228;2023-08-20T02:47:09;22.20;99.90
336;DHT22;156;48.738;9.228;2023-08-20T02:49:35;22.10;99.90
336;DHT22;156;48.738;9.228;2023-08-20T02:52:03;22.10;99.90
336;DHT22;156;48.738;9.228;2023-08-20T02:54:31;22.10;99.90
336;DHT22;156;48.738;9.228;2023-08-20T02:56:59;22.00;99.90
336;DHT22;156;48.738;9.228;2023-08-20T02:59:26;22.00;99.90
336;DHT22;156;48.738;9.228;2023-08-20T03:01:53;22.00;99.90
336;DHT22;156;48.738;9.228;2023-08-20T03:04:19;22.10;99.90
336;DHT22;156;48.738;9.228;2023-08-20T03:09:13;22.30;99.90
336;DHT22;156;48.738;9.228;2023-08-20T03:11:42;22.30;99.90
336;DHT22;156;48.738;9.228;2023-08-20T03:14:09;22.20;99.90
336;DHT22;156;48.738;9.228;2023-08-20T03:16:36;22.10;99.90
336;DHT22;156;48.738;9.228;2023-08-20T03:19:04;22.10;99.90
336;DHT22;156;48.738;9.228;2023-08-20T03:21:31;22.10;99.90
336;DHT22;156;48.738;9.228;2023-08-20T03:23:57;22.10;99.90
336;DHT22;156;48.738;9.228;2023-08-20T03:26:24;22.10;99.90
336;DHT22;156;48.738;9.228;2023-08-20T03:28:53;22.10;99.90
336;DHT22;156;48.738;9.228;2023-08-20T03:31:19;22.10;99.90
336;DHT22;156;48.738;9.228;2023-08-20T03:33:46;22.10;99.90
336;DHT22;156;48.738;9.228;2023-08-20T03:36:14;22.00;99.90
336;DHT22;156;48.738;9.228;2023-08-20T03:38:41;22.00;99.90
336;DHT22;156;48.738;9.228;2023-08-20T03:41:08;21.90;99.90
336;DHT22;156;48.738;9.228;2023-08-20T03:43:35;21.90;99.90
336;DHT22;156;48.738;9.228;2023-08-20T03:46:03;21.80;99.90
336;DHT22;156;48.738;9.228;2023-08-20T03:48:30;21.70;99.90
336;DHT22;156;48.738;9.228;2023-08-20T03:50:57;21.70;99.90
336;DHT22;156;48.738;9.228;2023-08-20T03:53:24;21.70;99.90
336;DHT22;156;48.738;9.228;2023-08-20T03:55:51;21.70;99.90
336;DHT22;156;48.738;9.228;2023-08-20T03:58:18;21.80;99.90
336;DHT22;156;48.738;9.228;2023-08-20T04:00:45;21.70;99.90
336;DHT22;156;48.738;9.228;2023-08-20T04:03:13;21.60;99.90
336;DHT22;156;48.738;9.228;2023-08-20T04:05:40;21.60;99.90
336;DHT22;156;48.738;9.228;2023-08-20T04:08:07;21.60;99.90
336;DHT22;156;48.738;9.228;2023-08-20T04:10:34;21.60;99.90
336;DHT22;156;48.738;9.228;2023-08-20T04:13:01;21.50;99.90
336;DHT22;156;48.738;9.228;2023-08-20T04:15:30;21.50;99.90
336;DHT22;156;48.738;9.228;2023-08-20T04:17:56;21.40;99.90
336;DHT22;156;48.738;9.228;2023-08-20T04:20:25;21.30;99.90
336;DHT22;156;48.738;9.228;2023-08-20T04:22:52;21.30;99.90
336;DHT22;156;48.738;9.228;2023-08-20T04:25:19;21.30;99.90
336;DHT22;156;48.738;9.228;2023-08-20T04:27:45;21.30;99.90
336;DHT22;156;48.738;9.228;2023-08-20T04:30:13;21.40;99.90
336;DHT22;156;48.738;9.228;2023-08-20T04:32:40;21.40;99.90
336;DHT22;156;48.738;9.228;2023-08-20T04:35:07;21.50;99.90
336;DHT22;156;48.738;9.228;2023-08-20T04:37:36;21.40;99.90
336;DHT22;156;48.738;9.228;2023-08-20T04:40:04;21.40;99.90
336;DHT22;156;48.738;9.228;2023-08-20T04:42:31;21.30;99.90
336;DHT22;156;48.738;9.228;2023-08-20T04:44:58;21.30;99.90
336;DHT22;156;48.738;9.228;2023-08-20T04:47:27;21.30;99.90
336;DHT22;156;48.738;9.228;2023-08-20T04:49:55;21.40;99.90
336;DHT22;156;48.738;9.228;2023-08-20T04:52:22;21.50;99.90
336;DHT22;156;48.738;9.228;2023-08-20T04:54:50;21.50;99.90
336;DHT22;156;48.738;9.228;2023-08-20T04:57:17;21.50;99.90
336;DHT22;156;48.738;9.228;2023-08-20T04:59:46;21.60;99.90
336;DHT22;156;48.738;9.228;2023-08-20T05:02:13;21.50;99.90
336;DHT22;156;48.738;9.228;2023-08-20T05:04:40;21.50;99.90
336;DHT22;156;48.738;9.228;2023-08-20T05:07:09;21.50;99.90
336;DHT22;156;48.738;9.228;2023-08-20T05:09:36;21.50;99.90
336;DHT22;156;48.738;9.228;2023-08-20T05:12:05;21.40;99.90
336;DHT22;156;48.738;9.228;2023-08-20T05:14:32;21.50;99.90
336;DHT22;156;48.738;9.228;2023-08-20T05:16:59;21.50;99.90
336;DHT22;156;48.738;9.228;2023-08-20T05:19:26;21.50;99.90
336;DHT22;156;48.738;9.228;2023-08-20T05:21:53;21.50;99.90
336;DHT22;156;48.738;9.228;2023-08-20T05:24:24;21.50;99.90
336;DHT22;156;48.738;9.228;2023-08-20T05:27:05;21.50;99.90
336;DHT22;156;48.738;9.228;2023-08-20T05:29:33;21.60;99.90
336;DHT22;156;48.738;9.228;2023-08-20T05:31:59;21.70;99.90
336;DHT22;156;48.738;9.228;2023-08-20T05:34:26;21.70;99.90
336;DHT22;156;48.738;9.228;2023-08-20T05:36:53;21.80;99.90
336;DHT22;156;48.738;9.228;2023-08-20T05:39:20;21.90;99.90
336;DHT22;156;48.738;9.228;2023-08-20T05:41:48;21.90;99.90
336;DHT22;156;48.738;9.228;2023-08-20T05:44:16;21.90;99.90
336;DHT22;156;48.738;9.228;2023-08-20T05:46:43;21.90;99.90
336;DHT22;156;48.738;9.228;2023-08-20T05:49:11;21.80;99.90
336;DHT22;156;48.738;9.228;2023-08-20T05:51:38;21.90;99.90
336;DHT22;156;48.738;9.228;2023-08-20T05:54:05;22.10;99.90
336;DHT22;156;48.738;9.228;2023-08-20T05:56:32;22.20;99.90
336;DHT22;156;48.738;9.228;2023-08-20T05:58:59;22.30;99.90
336;DHT22;156;48.738;9.228;2023-08-20T06:01:27;22.40;99.90
336;DHT22;156;48.738;9.228;2023-08-20T06:03:54;22.40;99.90
336;DHT22;156;48.738;9.228;2023-08-20T06:06:21;22.50;99.90
336;DHT22;156;48.738;9.228;2023-08-20T06:08:48;22.50;99.90
336;DHT22;156;48.738;9.228;2023-08-20T06:11:15;22.60;99.90
336;DHT22;156;48.738;9.228;2023-08-20T06:13:42;22.70;99.90
336;DHT22;156;48.738;9.228;2023-08-20T06:16:09;22.70;99.90
336;DHT22;156;48.738;9.228;2023-08-20T06:18:37;22.80;99.90
336;DHT22;156;48.738;9.228;2023-08-20T06:21:04;23.00;99.90
336;DHT22;156;48.738;9.228;2023-08-20T06:23:31;23.10;99.90
336;DHT22;156;48.738;9.228;2023-08-20T06:25:58;23.00;99.90
336;DHT22;156;48.738;9.228;2023-08-20T06:28:25;23.10;99.90
336;DHT22;156;48.738;9.228;2023-08-20T06:30:52;23.10;99.90
336;DHT22;156;48.738;9.228;2023-08-20T06:33:18;23.30;99.90
336;DHT22;156;48.738;9.228;2023-08-20T06:35:47;23.60;99.90
336;DHT22;156;48.738;9.228;2023-08-20T06:38:16;23.60;99.20
336;DHT22;156;48.738;9.228;2023-08-20T06:40:44;23.80;82.70
336;DHT22;156;48.738;9.228;2023-08-20T06:43:11;23.70;81.70
336;DHT22;156;48.738;9.228;2023-08-20T06:45:38;23.80;84.70
336;DHT22;156;48.738;9.228;2023-08-20T06:48:05;23.80;88.20
336;DHT22;156;48.738;9.228;2023-08-20T06:50:34;23.80;94.50
336;DHT22;156;48.738;9.228;2023-08-20T06:53:03;24.10;78.50
336;DHT22;156;48.738;9.228;2023-08-20T06:55:31;24.30;39.10
336;DHT22;156;48.738;9.228;2023-08-20T06:57:58;24.40;24.80
336;DHT22;156;48.738;9.228;2023-08-20T07:00:24;24.50;14.30
336;DHT22;156;48.738;9.228;2023-08-20T07:02:52;24.70;1.00
336;DHT22;156;48.738;9.228;2023-08-20T07:05:18;24.70;1.00
336;DHT22;156;48.738;9.228;2023-08-20T07:07:46;24.80;1.00
336;DHT22;156;48.738;9.228;2023-08-20T07:10:14;24.90;1.00
336;DHT22;156;48.738;9.228;2023-08-20T07:12:41;24.80;1.00
336;DHT22;156;48.738;9.228;2023-08-20T07:15:09;24.80;1.00
336;DHT22;156;48.738;9.228;2023-08-20T07:17:36;24.70;1.00
336;DHT22;156;48.738;9.228;2023-08-20T07:20:05;24.60;1.00
336;DHT22;156;48.738;9.228;2023-08-20T07:22:32;24.60;1.00
336;DHT22;156;48.738;9.228;2023-08-20T07:24:59;24.80;1.00
336;DHT22;156;48.738;9.228;2023-08-20T07:27:28;24.80;1.00
336;DHT22;156;48.738;9.228;2023-08-20T07:29:54;24.60;1.00
336;DHT22;156;48.738;9.228;2023-08-20T07:32:21;24.60;1.00
336;DHT22;156;48.738;9.228;2023-08-20T07:34:48;24.40;1.00
336;DHT22;156;48.738;9.228;2023-08-20T07:37:15;24.40;1.00
336;DHT22;156;48.738;9.228;2023-08-20T07:39:42;24.50;1.00
336;DHT22;156;48.738;9.228;2023-08-20T07:42:09;24.50;1.00
336;DHT22;156;48.738;9.228;2023-08-20T07:44:45;24.60;1.00
336;DHT22;156;48.738;9.228;2023-08-20T07:47:15;26.50;1.00
336;DHT22;156;48.738;9.228;2023-08-20T07:49:43;25.10;1.00
336;DHT22;156;48.738;9.228;2023-08-20T07:52:12;25.20;1.00
336;DHT22;156;48.738;9.228;2023-08-20T07:54:39;25.30;1.00
336;DHT22;156;48.738;9.228;2023-08-20T07:57:08;25.30;1.00
336;DHT22;156;48.738;9.228;2023-08-20T07:59:36;25.30;1.00
336;DHT22;156;48.738;9.228;2023-08-20T08:02:05;25.50;1.00
336;DHT22;156;48.738;9.228;2023-08-20T08:04:33;25.50;1.00
336;DHT22;156;48.738;9.228;2023-08-20T08:07:00;25.50;1.00
336;DHT22;156;48.738;9.228;2023-08-20T08:09:29;25.40;1.00
336;DHT22;156;48.738;9.228;2023-08-20T08:11:57;25.30;1.00
336;DHT22;156;48.738;9.228;2023-08-20T08:14:27;25.40;1.00
336;DHT22;156;48.738;9.228;2023-08-20T08:16:57;25.40;1.00
336;DHT22;156;48.738;9.228;2023-08-20T08:19:26;25.50;1.00
336;DHT22;156;48.738;9.228;2023-08-20T08:21:54;25.50;1.00
336;DHT22;156;48.738;9.228;2023-08-20T08:24:21;25.70;1.00
336;DHT22;156;48.738;9.228;2023-08-20T08:26:48;25.70;1.00
336;DHT22;156;48.738;9.228;2023-08-20T08:29:16;25.70;1.00
336;DHT22;156;48.738;9.228;2023-08-20T08:31:43;25.70;1.00
336;DHT22;156;48.738;9.228;2023-08-20T08:34:10;25.80;1.00
336;DHT22;156;48.738;9.228;2023-08-20T08:36:45;25.70;1.00
336;DHT22;156;48.738;9.228;2023-08-20T08:39:12;26.90;1.00
336;DHT22;156;48.738;9.228;2023-08-20T08:41:44;25.40;1.00
336;DHT22;156;48.738;9.228;2023-08-20T08:44:13;25.40;1.00
336;DHT22;156;48.738;9.228;2023-08-20T08:46:40;25.70;1.00
336;DHT22;156;48.738;9.228;2023-08-20T08:49:08;25.90;1.00
336;DHT22;156;48.738;9.228;2023-08-20T08:51:36;25.90;1.00
336;DHT22;156;48.738;9.228;2023-08-20T08:54:05;25.80;1.00
336;DHT22;156;48.738;9.228;2023-08-20T08:56:32;25.80;1.00
336;DHT22;156;48.738;9.228;2023-08-20T08:58:59;25.90;1.00
336;DHT22;156;48.738;9.228;2023-08-20T09:01:38;26.00;1.00
336;DHT22;156;48.738;9.228;2023-08-20T09:04:45;26.10;1.00
336;DHT22;156;48.738;9.228;2023-08-20T09:07:21;28.10;1.00
336;DHT22;156;48.738;9.228;2023-08-20T09:10:16;26.30;1.00
336;DHT22;156;48.738;9.228;2023-08-20T09:13:06;26.50;1.00
336;DHT22;156;48.738;9.228;2023-08-20T09:15:44;26.50;1.00
336;DHT22;156;48.738;9.228;2023-08-20T09:18:31;26.30;1.00
336;DHT22;156;48.738;9.228;2023-08-20T09:21:20;26.40;99.90
336;DHT22;156;48.738;9.228;2023-08-20T09:24:09;26.40;99.90
336;DHT22;156;48.738;9.228;2023-08-20T09:27:13;26.60;99.90
336;DHT22;156;48.738;9.228;2023-08-20T09:30:06;26.70;99.90
336;DHT22;156;48.738;9.228;2023-08-20T09:32:36;26.70;99.90
336;DHT22;156;48.738;9.228;2023-08-20T09:35:04;27.20;91.20
336;DHT22;156;48.738;9.228;2023-08-20T09:37:43;26.80;12.70
336;DHT22;156;48.738;9.228;2023-08-20T09:40:43;27.00;1.00
336;DHT22;156;48.738;9.228;2023-08-20T09:43:44;27.20;1.00
336;DHT22;156;48.738;9.228;2023-08-20T09:46:17;27.20;1.00
336;DHT22;156;48.738;9.228;2023-08-20T09:48:47;27.20;1.00
336;DHT22;156;48.738;9.228;2023-08-20T09:51:16;27.20;1.00
336;DHT22;156;48.738;9.228;2023-08-20T09:53:53;27.40;1.00
336;DHT22;156;48.738;9.228;2023-08-20T09:56:27;27.50;1.00
336;DHT22;156;48.738;9.228;2023-08-20T09:58:57;27.60;1.00
336;DHT22;156;48.738;9.228;2023-08-20T10:01:27;27.20;1.00
336;DHT22;156;48.738;9.228;2023-08-20T10:04:04;27.50;1.00
336;DHT22;156;48.738;9.228;2023-08-20T10:06:35;27.60;1.00
336;DHT22;156;48.738;9.228;2023-08-20T10:09:07;27.80;1.00
336;DHT22;156;48.738;9.228;2023-08-20T10:12:09;27.90;99.90
336;DHT22;156;48.738;9.228;2023-08-20T10:18:16;27.90;99.90
336;DHT22;156;48.738;9.228;2023-08-20T10:21:05;27.90;99.90
336;DHT22;156;48.738;9.228;2023-08-20T10:23:54;28.20;99.90
336;DHT22;156;48.738;9.228;2023-08-20T10:29:39;28.40;99.90
336;DHT22;156;48.738;9.228;2023-08-20T10:34:58;28.30;99.90
336;DHT22;156;48.738;9.228;2023-08-20T10:40:50;28.40;99.90
336;DHT22;156;48.738;9.228;2023-08-20T10:43:34;28.40;99.90
336;DHT22;156;48.738;9.228;2023-08-20T10:46:08;28.40;99.90
336;DHT22;156;48.738;9.228;2023-08-20T10:48:37;28.60;99.90
336;DHT22;156;48.738;9.228;2023-08-20T10:51:09;28.80;99.90
336;DHT22;156;48.738;9.228;2023-08-20T10:53:38;29.00;99.90
336;DHT22;156;48.738;9.228;2023-08-20T10:56:12;29.40;99.90
336;DHT22;156;48.738;9.228;2023-08-20T10:58:44;29.40;99.90
336;DHT22;156;48.738;9.228;2023-08-20T11:01:17;29.40;98.40
336;DHT22;156;48.738;9.228;2023-08-20T11:03:45;29.50;98.70
336;DHT22;156;48.738;9.228;2023-08-20T11:06:16;29.30;78.90
336;DHT22;156;48.738;9.228;2023-08-20T11:08:46;29.30;49.50
336;DHT22;156;48.738;9.228;2023-08-20T11:11:14;28.90;43.30
336;DHT22;156;48.738;9.228;2023-08-20T11:13:41;29.30;32.80
336;DHT22;156;48.738;9.228;2023-08-20T11:16:16;29.40;98.40
336;DHT22;156;48.738;9.228;2023-08-20T11:19:22;29.50;59.40
336;DHT22;156;48.738;9.228;2023-08-20T11:22:01;29.30;42.30
336;DHT22;156;48.738;9.228;2023-08-20T11:24:33;29.30;92.20
336;DHT22;156;48.738;9.228;2023-08-20T11:27:25;29.50;96.70
336;DHT22;156;48.738;9.228;2023-08-20T11:30:12;28.80;51.20
336;DHT22;156;48.738;9.228;2023-08-20T11:32:48;29.80;1.00
336;DHT22;156;48.738;9.228;2023-08-20T11:35:18;29.70;3.80
336;DHT22;156;48.738;9.228;2023-08-20T11:37:48;29.80;1.00
336;DHT22;156;48.738;9.228;2023-08-20T11:40:20;29.70;1.00
336;DHT22;156;48.738;9.228;2023-08-20T11:42:50;29.70;1.00
336;DHT22;156;48.738;9.228;2023-08-20T11:45:18;29.70;1.00
336;DHT22;156;48.738;9.228;2023-08-20T11:47:45;29.70;1.00
336;DHT22;156;48.738;9.228;2023-08-20T11:50:13;29.80;1.00
336;DHT22;156;48.738;9.228;2023-08-20T11:52:41;29.80;1.00
336;DHT22;156;48.738;9.228;2023-08-20T11:55:13;29.90;1.00
336;DHT22;156;48.738;9.228;2023-08-20T11:57:41;30.10;1.00
336;DHT22;156;48.738;9.228;2023-08-20T12:00:09;30.20;1.00
336;DHT22;156;48.738;9.228;2023-08-20T12:02:52;30.20;1.00
336;DHT22;156;48.738;9.228;2023-08-20T12:05:21;30.40;1.00
336;DHT22;156;48.738;9.228;2023-08-20T12:07:57;30.40;1.00
336;DHT22;156;48.738;9.228;2023-08-20T12:10:28;30.40;1.00
336;DHT22;156;48.738;9.228;2023-08-20T12:12:58;30.40;1.00
336;DHT22;156;48.738;9.228;2023-08-20T12:15:26;30.40;1.00
336;DHT22;156;48.738;9.228;2023-08-20T12:18:02;30.60;1.00
336;DHT22;156;48.738;9.228;2023-08-20T12:20:40;30.60;1.00
336;DHT22;156;48.738;9.228;2023-08-20T12:23:10;30.90;1.00
336;DHT22;156;48.738;9.228;2023-08-20T12:25:42;30.70;1.00
336;DHT22;156;48.738;9.228;2023-08-20T12:28:24;31.00;1.00
336;DHT22;156;48.738;9.228;2023-08-20T12:30:54;30.90;1.00
336;DHT22;156;48.738;9.228;2023-08-20T12:33:36;30.90;1.00
336;DHT22;156;48.738;9.228;2023-08-20T12:36:12;31.10;1.00
336;DHT22;156;48.738;9.228;2023-08-20T12:38:47;31.20;1.00
336;DHT22;156;48.738;9.228;2023-08-20T12:41:23;31.40;1.00
336;DHT22;156;48.738;9.228;2023-08-20T12:44:00;31.20;1.00
336;DHT22;156;48.738;9.228;2023-08-20T12:46:38;31.40;1.00
336;DHT22;156;48.738;9.228;2023-08-20T12:49:05;31.60;1.00
336;DHT22;156;48.738;9.228;2023-08-20T12:51:33;31.80;1.00
336;DHT22;156;48.738;9.228;2023-08-20T12:54:03;32.20;1.00
336;DHT22;156;48.738;9.228;2023-08-20T12:56:32;32.40;1.00
336;DHT22;156;48.738;9.228;2023-08-20T12:59:01;32.60;1.00
336;DHT22;156;48.738;9.228;2023-08-20T13:01:32;32.60;1.00
336;DHT22;156;48.738;9.228;2023-08-20T13:04:12;32.90;1.00
336;DHT22;156;48.738;9.228;2023-08-20T13:06:48;33.50;1.00
336;DHT22;156;48.738;9.228;2023-08-20T13:09:42;33.00;1.00
336;DHT22;156;48.738;9.228;2023-08-20T13:13:04;33.50;1.00
336;DHT22;156;48.738;9.228;2023-08-20T13:16:07;33.20;1.00
336;DHT22;156;48.738;9.228;2023-08-20T13:18:45;33.20;1.00
336;DHT22;156;48.738;9.228;2023-08-20T13:21:13;33.60;1.00
336;DHT22;156;48.738;9.228;2023-08-20T13:23:47;33.40;1.00
336;DHT22;156;48.738;9.228;2023-08-20T13:26:15;33.90;1.00
336;DHT22;156;48.738;9.228;2023-08-20T13:28:56;33.90;1.00
336;DHT22;156;48.738;9.228;2023-08-20T13:31:23;33.40;1.00
336;DHT22;156;48.738;9.228;2023-08-20T13:33:51;33.40;1.00
336;DHT22;156;48.738;9.228;2023-08-20T13:36:18;33.30;1.00
336;DHT22;156;48.738;9.228;2023-08-20T13:38:47;33.40;1.00
336;DHT22;156;48.738;9.228;2023-08-20T13:41:14;33.40;1.00
336;DHT22;156;48.738;9.228;2023-08-20T13:43:41;33.70;1.00
336;DHT22;156;48.738;9.228;2023-08-20T13:46:12;34.10;1.00
336;DHT22;156;48.738;9.228;2023-08-20T13:48:39;33.90;1.00
336;DHT22;156;48.738;9.228;2023-08-20T13:51:06;34.40;1.00
336;DHT22;156;48.738;9.228;2023-08-20T13:53:33;34.40;1.00
336;DHT22;156;48.738;9.228;2023-08-20T13:56:01;34.10;1.00
336;DHT22;156;48.738;9.228;2023-08-20T13:58:28;34.30;1.00
336;DHT22;156;48.738;9.228;2023-08-20T14:00:55;34.00;1.00
336;DHT22;156;48.738;9.228;2023-08-20T14:03:23;34.20;1.00
336;DHT22;156;48.738;9.228;2023-08-20T14:05:50;34.00;1.00
336;DHT22;156;48.738;9.228;2023-08-20T14:08:17;33.80;1.00
336;DHT22;156;48.738;9.228;2023-08-20T14:10:44;34.20;1.00
336;DHT22;156;48.738;9.228;2023-08-20T14:13:11;34.20;1.00
336;DHT22;156;48.738;9.228;2023-08-20T14:15:38;34.20;1.00
336;DHT22;156;48.738;9.228;2023-08-20T14:18:06;33.90;1.00
336;DHT22;156;48.738;9.228;2023-08-20T14:20:35;34.30;1.00
336;DHT22;156;48.738;9.228;2023-08-20T14:23:07;34.00;1.00
336;DHT22;156;48.738;9.228;2023-08-20T14:25:35;34.00;1.00
336;DHT22;156;48.738;9.228;2023-08-20T14:28:02;34.20;1.00
336;DHT22;156;48.738;9.228;2023-08-20T14:30:29;33.80;1.00
336;DHT22;156;48.738;9.228;2023-08-20T14:32:56;33.90;1.00
336;DHT22;156;48.738;9.228;2023-08-20T14:35:26;33.90;1.00
336;DHT22;156;48.738;9.228;2023-08-20T14:37:54;33.70;1.00
336;DHT22;156;48.738;9.228;2023-08-20T14:40:21;34.00;1.00
336;DHT22;156;48.738;9.228;2023-08-20T14:42:51;34.00;1.00
336;DHT22;156;48.738;9.228;2023-08-20T14:45:20;33.80;1.00
336;DHT22;156;48.738;9.228;2023-08-20T14:47:47;33.80;1.00
336;DHT22;156;48.738;9.228;2023-08-20T14:50:14;33.70;1.00
336;DHT22;156;48.738;9.228;2023-08-20T14:52:41;33.70;1.00
336;DHT22;156;48.738;9.228;2023-08-20T14:55:09;33.90;1.00
336;DHT22;156;48.738;9.228;2023-08-20T14:57:36;33.70;1.00
336;DHT22;156;48.738;9.228;2023-08-20T15:00:05;33.70;1.00
336;DHT22;156;48.738;9.228;2023-08-20T15:02:39;33.40;1.00
336;DHT22;156;48.738;9.228;2023-08-20T15:05:06;33.00;1.00
336;DHT22;156;48.738;9.228;2023-08-20T15:07:33;32.70;1.00
336;DHT22;156;48.738;9.228;2023-08-20T15:10:00;32.30;1.00
336;DHT22;156;48.738;9.228;2023-08-20T15:12:32;32.00;1.00
336;DHT22;156;48.738;9.228;2023-08-20T15:15:05;32.00;1.00
336;DHT22;156;48.738;9.228;2023-08-20T15:17:34;32.00;1.00
336;DHT22;156;48.738;9.228;2023-08-20T15:20:01;31.90;1.00
336;DHT22;156;48.738;9.228;2023-08-20T15:22:32;32.10;1.00
336;DHT22;156;48.738;9.228;2023-08-20T15:24:59;32.20;1.00
336;DHT22;156;48.738;9.228;2023-08-20T15:27:26;32.70;1.00
336;DHT22;156;48.738;9.228;2023-08-20T15:29:55;32.80;1.00
336;DHT22;156;48.738;9.228;2023-08-20T15:32:22;32.80;1.00
336;DHT22;156;48.738;9.228;2023-08-20T15:34:53;33.00;1.00
336;DHT22;156;48.738;9.228;2023-08-20T15:37:21;33.10;1.00
336;DHT22;156;48.738;9.228;2023-08-20T15:39:48;34.60;1.00
336;DHT22;156;48.738;9.228;2023-08-20T15:42:15;32.90;1.00
336;DHT22;156;48.738;9.228;2023-08-20T15:44:42;31.50;1.00
336;DHT22;156;48.738;9.228;2023-08-20T15:47:10;32.80;1.00
336;DHT22;156;48.738;9.228;2023-08-20T15:49:37;33.00;1.00
336;DHT22;156;48.738;9.228;2023-08-20T15:52:04;33.10;1.00
336;DHT22;156;48.738;9.228;2023-08-20T15:54:34;33.20;1.00
336;DHT22;156;48.738;9.228;2023-08-20T15:57:03;33.60;1.00
336;DHT22;156;48.738;9.228;2023-08-20T15:59:30;32.90;1.00
336;DHT22;156;48.738;9.228;2023-08-20T16:01:57;32.80;1.00
336;DHT22;156;48.738;9.228;2023-08-20T16:04:25;32.60;1.00
336;DHT22;156;48.738;9.228;2023-08-20T16:06:52;32.50;1.00
336;DHT22;156;48.738;9.228;2023-08-20T16:09:19;32.30;1.00
336;DHT22;156;48.738;9.228;2023-08-20T16:11:46;32.30;1.00
336;DHT22;156;48.738;9.228;2023-08-20T16:14:13;32.20;1.00
336;DHT22;156;48.738;9.228;2023-08-20T16:16:40;32.20;1.00
336;DHT22;156;48.738;9.228;2023-08-20T16:19:07;32.50;1.00
336;DHT22;156;48.738;9.228;2023-08-20T16:21:37;32.60;1.00
336;DHT22;156;48.738;9.228;2023-08-20T16:24:04;32.60;1.00
336;DHT22;156;48.738;9.228;2023-08-20T16:26:31;32.80;1.00
336;DHT22;156;48.738;9.228;2023-08-20T16:28:58;32.80;1.00
336;DHT22;156;48.738;9.228;2023-08-20T16:31:25;33.10;1.00
336;DHT22;156;48.738;9.228;2023-08-20T16:33:52;33.60;1.00
336;DHT22;156;48.738;9.228;2023-08-20T16:36:19;33.90;1.00
336;DHT22;156;48.738;9.228;2023-08-20T16:38:48;34.00;1.00
336;DHT22;156;48.738;9.228;2023-08-20T16:41:16;33.90;1.00
336;DHT22;156;48.738;9.228;2023-08-20T16:43:43;33.90;1.00
336;DHT22;156;48.738;9.228;2023-08-20T16:46:10;34.00;1.00
336;DHT22;156;48.738;9.228;2023-08-20T16:48:40;34.10;1.00
336;DHT22;156;48.738;9.228;2023-08-20T16:51:07;34.10;1.00
336;DHT22;156;48.738;9.228;2023-08-20T16:53:34;34.00;1.00
336;DHT22;156;48.738;9.228;2023-08-20T16:56:02;33.30;1.00
336;DHT22;156;48.738;9.228;2023-08-20T16:58:30;33.10;1.00
336;DHT22;156;48.738;9.228;2023-08-20T17:00:57;33.30;1.00
336;DHT22;156;48.738;9.228;2023-08-20T17:03:24;33.30;1.00
336;DHT22;156;48.738;9.228;2023-08-20T17:05:59;33.40;1.00
336;DHT22;156;48.738;9.228;2023-08-20T17:08:29;33.40;1.00
336;DHT22;156;48.738;9.228;2023-08-20T17:11:07;33.20;1.00
336;DHT22;156;48.738;9.228;2023-08-20T17:13:35;34.10;1.00
336;DHT22;156;48.738;9.228;2023-08-20T17:16:02;32.60;1.00
336;DHT22;156;48.738;9.228;2023-08-20T17:18:31;32.40;1.00